Time;durP1;ratioP1;P1;durP2;ratioP2;P2;SDS_P1;SDS_P2;PMS_P1;PMS_P2;Temp;Humidity;BMP_temperature;BMP_pressure;BME280_temperature;BME280_humidity;BME280_pressure;Samples;Min_cycle;Max_cycle;Signal;HPM_P1;HPM_P2
2022/08/17 00:00:53;;;;;;;7.72;3.88;;;;;;;28.64;52.16;96626.56;5116620;28;20019;-35
2022/08/17 00:03:29;;;;;;;7.70;3.95;;;;;;;28.63;52.11;96633.44;5116801;28;20056;-34
2022/08/17 00:06:01;;;;;;;7.28;3.75;;;;;;;28.65;52.03;96630.88;5116451;28;20054;-35
2022/08/17 00:08:39;;;;;;;8.35;4.05;;;;;;;28.63;51.86;96625.81;5114965;28;20455;-36
2022/08/17 00:11:11;;;;;;;8.05;4.40;;;;;;;28.62;51.85;96626.34;5116619;28;20028;-34
2022/08/17 00:13:44;;;;;;;6.17;3.53;;;;;;;28.62;51.90;96615.94;5116339;28;20020;-36
2022/08/17 00:16:23;;;;;;;6.43;3.58;;;;;;;28.57;52.06;96614.03;5116620;28;20252;-35
2022/08/17 00:18:49;;;;;;;6.47;3.65;;;;;;;28.63;51.91;96606.28;5116412;28;20020;-36
2022/08/17 00:21:16;;;;;;;6.80;3.75;;;;;;;28.60;51.56;96612.94;5116245;28;20020;-35
2022/08/17 00:23:43;;;;;;;8.32;4.18;;;;;;;28.58;51.99;96615.53;5116425;28;20027;-35
2022/08/17 00:26:09;;;;;;;7.65;4.00;;;;;;;28.64;51.60;96618.94;5116380;28;20028;-34
2022/08/17 00:28:36;;;;;;;8.35;4.05;;;;;;;28.63;51.68;96611.88;5115952;28;20509;-35
2022/08/17 00:31:02;;;;;;;6.25;3.63;;;;;;;28.64;51.49;96618.94;5115833;28;20027;-34
2022/08/17 00:33:30;;;;;;;7.47;4.35;;;;;;;28.62;51.69;96618.75;5114646;28;20419;-34
2022/08/17 00:35:57;;;;;;;8.77;3.97;;;;;;;28.63;51.44;96614.66;5116208;28;20035;-35
2022/08/17 00:38:23;;;;;;;7.30;4.20;;;;;;;28.59;52.35;96628.94;5115914;28;20562;-35
2022/08/17 00:41:01;;;;;;;6.03;4.10;;;;;;;28.62;51.84;96624.31;5115773;28;20114;-36
2022/08/17 00:43:36;;;;;;;6.22;3.53;;;;;;;28.62;51.91;96621.53;5115857;28;20034;-35
2022/08/17 00:46:08;;;;;;;7.55;3.67;;;;;;;28.61;51.86;96611.66;5115871;28;20498;-34
2022/08/17 00:48:34;;;;;;;6.65;3.67;;;;;;;28.60;52.08;96624.84;5116030;28;20077;-35
2022/08/17 00:51:23;;;;;;;6.03;3.53;;;;;;;28.62;51.77;96620.78;5115574;28;20036;-35
2022/08/17 00:53:56;;;;;;;5.63;3.70;;;;;;;28.62;51.76;96615.19;5115746;28;20058;-34
2022/08/17 00:56:28;;;;;;;5.75;3.65;;;;;;;28.63;51.66;96625.81;5115703;28;20032;-35
2022/08/17 00:58:54;;;;;;;7.25;3.80;;;;;;;28.62;51.79;96618.75;5114302;28;20088;-35
2022/08/17 01:01:21;;;;;;;6.38;3.88;;;;;;;28.63;51.81;96625.81;5115486;28;20512;-36
2022/08/17 01:03:49;;;;;;;6.00;3.75;;;;;;;28.64;51.58;96623.78;5115423;28;20019;-35
2022/08/17 01:06:14;;;;;;;6.60;3.63;;;;;;;28.59;51.69;96630.97;5115429;28;20466;-34
2022/08/17 01:08:40;;;;;;;6.82;3.60;;;;;;;28.59;51.86;96628.19;5114931;28;20040;-35
2022/08/17 01:11:07;;;;;;;5.18;3.17;;;;;;;28.64;51.94;96623.78;5115210;28;20106;-36
2022/08/17 01:13:39;;;;;;;5.07;3.10;;;;;;;28.65;51.50;96631.63;5115193;28;20027;-35
2022/08/17 01:16:14;;;;;;;6.28;3.58;;;;;;;28.62;51.67;96627.09;5115497;27;20385;-35
2022/08/17 01:18:41;;;;;;;6.70;3.17;;;;;;;28.62;51.46;96629.16;5115200;28;20095;-34
2022/08/17 01:21:15;;;;;;;6.85;3.55;;;;;;;28.62;51.45;96627.09;5115196;28;20477;-34
2022/08/17 01:23:41;;;;;;;6.18;3.20;;;;;;;28.65;51.51;96628.81;5115052;28;20386;-35
2022/08/17 01:26:07;;;;;;;7.53;3.53;;;;;;;28.64;51.58;96624.53;5112446;28;20088;-35
2022/08/17 01:28:35;;;;;;;5.00;2.85;;;;;;;28.64;51.58;96632.16;5114617;28;20027;-35
2022/08/17 01:31:04;;;;;;;4.50;2.88;;;;;;;28.63;51.35;96634.19;5114797;28;20076;-34
2022/08/17 01:33:30;;;;;;;4.80;3.00;;;;;;;28.63;51.26;96636.22;5114808;28;20073;-35
2022/08/17 01:35:56;;;;;;;7.68;3.10;;;;;;;28.63;51.31;96639.03;5114763;28;20384;-35
2022/08/17 01:38:23;;;;;;;6.88;3.10;;;;;;;28.61;51.59;96639.56;5114780;28;20106;-36
2022/08/17 01:40:57;;;;;;;5.82;2.83;;;;;;;28.63;51.18;96645.34;5114809;28;20557;-34
2022/08/17 01:43:31;;;;;;;6.00;3.38;;;;;;;28.58;51.20;96641.38;5114041;28;20085;-34
2022/08/17 01:45:58;;;;;;;7.50;3.28;;;;;;;28.60;51.13;96633.22;5114878;28;20372;-34
2022/08/17 01:48:33;;;;;;;5.57;2.90;;;;;;;28.60;51.23;96633.22;5114531;28;20027;-34
2022/08/17 01:50:59;;;;;;;6.82;3.17;;;;;;;28.60;51.19;96626.91;5114657;28;20485;-34
2022/08/17 01:53:38;;;;;;;6.13;3.30;;;;;;;28.61;51.02;96625.59;5114474;28;20033;-36
2022/08/17 01:56:17;;;;;;;8.23;2.83;;;;;;;28.59;51.26;96623.34;5114553;28;20434;-34
2022/08/17 01:58:45;;;;;;;6.57;3.30;;;;;;;28.60;51.26;96615.72;5114661;28;20430;-35
2022/08/17 02:01:13;;;;;;;5.47;3.33;;;;;;;28.62;50.70;96620.78;5114265;28;20461;-34
2022/08/17 02:03:39;;;;;;;8.95;3.50;;;;;;;28.62;51.14;96620.78;5114171;28;20473;-35
2022/08/17 02:06:06;;;;;;;6.22;2.85;;;;;;;28.58;51.16;96615.53;5114899;28;20449;-34
2022/08/17 02:08:34;;;;;;;5.18;2.67;;;;;;;28.61;50.97;96622.81;5114009;28;20100;-34
2022/08/17 02:11:05;;;;;;;5.65;3.28;;;;;;;28.57;51.19;96614.78;5114143;28;20023;-34
2022/08/17 02:13:32;;;;;;;4.10;2.95;;;;;;;28.60;51.10;96618.53;5114163;28;20085;-34
2022/08/17 02:15:59;;;;;;;7.25;2.67;;;;;;;28.62;51.13;96620.78;5114339;28;20020;-34
2022/08/17 02:18:25;;;;;;;5.93;3.20;;;;;;;28.62;50.89;96615.19;5113893;28;20069;-35
2022/08/17 02:20:51;;;;;;;7.30;3.13;;;;;;;28.59;50.87;96617.03;5114129;28;20484;-35
2022/08/17 02:23:18;;;;;;;5.93;2.97;;;;;;;28.60;51.01;96612.94;5114159;28;20028;-35
2022/08/17 02:25:46;;;;;;;4.40;3.10;;;;;;;28.58;50.98;96609.94;5114166;28;20020;-34
2022/08/17 02:28:12;;;;;;;7.32;3.15;;;;;;;28.58;50.92;96598.78;5113991;28;20023;-35
2022/08/17 02:30:38;;;;;;;6.93;2.85;;;;;;;28.57;50.89;96580.53;5114234;28;20030;-35
2022/08/17 02:33:05;;;;;;;6.70;3.10;;;;;;;28.57;50.75;96586.88;5113951;28;20062;-35
2022/08/17 02:35:31;;;;;;;5.35;2.60;;;;;;;28.57;50.76;96594.50;5113787;28;20366;-35
2022/08/17 02:37:57;;;;;;;6.35;3.30;;;;;;;28.56;50.78;96584.66;5113842;28;20068;-35
2022/08/17 02:40:23;;;;;;;8.90;3.60;;;;;;;28.55;50.67;96574.78;5113614;28;20019;-35
2022/08/17 02:42:48;;;;;;;6.30;3.05;;;;;;;28.58;50.69;96582.03;5113866;28;20023;-34
2022/08/17 02:45:18;;;;;;;4.75;2.72;;;;;;;28.56;50.85;96567.91;5113787;28;20035;-34
2022/08/17 02:47:44;;;;;;;9.02;3.35;;;;;;;28.59;50.75;96573.13;5112779;28;20023;-35
2022/08/17 02:50:12;;;;;;;8.50;3.38;;;;;;;28.56;50.83;96571.41;5113600;28;20031;-35
2022/08/17 02:52:39;;;;;;;7.20;3.85;;;;;;;28.57;50.52;96569.38;5112377;28;20069;-34
2022/08/17 02:55:07;;;;;;;5.00;2.90;;;;;;;28.53;50.84;96566.19;5115171;28;20081;-34
2022/08/17 02:57:33;;;;;;;6.63;3.45;;;;;;;28.59;50.63;96561.97;5117845;28;20423;-35
2022/08/17 02:59:58;;;;;;;7.10;3.13;;;;;;;28.58;50.61;96557.69;5117955;28;20077;-34
2022/08/17 03:02:24;;;;;;;6.78;3.55;;;;;;;28.57;50.91;96558.22;5118013;28;20035;-34
2022/08/17 03:04:49;;;;;;;6.22;3.15;;;;;;;28.55;50.77;96569.94;5117764;28;20047;-34
2022/08/17 03:07:15;;;;;;;5.20;2.97;;;;;;;28.52;51.24;96568.25;5117297;28;20548;-33
2022/08/17 03:09:41;;;;;;;6.38;3.38;;;;;;;28.54;50.86;96564.91;5117612;28;20218;-35
2022/08/17 03:12:11;;;;;;;6.28;3.22;;;;;;;28.53;51.21;96569.75;5117630;28;20470;-34
2022/08/17 03:14:40;;;;;;;6.50;3.42;;;;;;;28.54;50.89;96574.03;5117294;28;20030;-35
2022/08/17 03:17:06;;;;;;;6.28;3.05;;;;;;;28.55;50.70;96577.56;5117586;28;20034;-36
2022/08/17 03:19:31;;;;;;;9.13;3.85;;;;;;;28.56;50.85;96571.41;5117729;28;20394;-35
2022/08/17 03:21:58;;;;;;;8.25;3.53;;;;;;;28.52;51.40;96562.66;5117639;28;20020;-35
2022/08/17 03:24:23;;;;;;;6.78;3.58;;;;;;;28.51;51.46;96568.78;5117509;28;20069;-34
2022/08/17 03:26:49;;;;;;;7.35;3.42;;;;;;;28.52;51.60;96573.06;5116457;28;20027;-35
2022/08/17 03:29:17;;;;;;;6.50;3.78;;;;;;;28.54;51.29;96585.19;5117107;28;20023;-34
2022/08/17 03:31:46;;;;;;;6.47;4.00;;;;;;;28.55;51.28;96575.53;5117204;27;20092;-34
2022/08/17 03:34:13;;;;;;;6.22;3.70;;;;;;;28.57;51.18;96586.13;5117287;28;20063;-35
2022/08/17 03:36:38;;;;;;;6.38;3.50;;;;;;;28.54;51.53;96581.66;5117096;28;20040;-35
2022/08/17 03:39:04;;;;;;;5.43;3.55;;;;;;;28.53;51.63;96583.69;5115710;28;20012;-37
2022/08/17 03:41:30;;;;;;;6.20;3.95;;;;;;;28.53;51.29;96582.94;5116957;28;20023;-34
2022/08/17 03:43:55;;;;;;;5.75;3.55;;;;;;;28.56;51.37;96595.81;5116949;28;20378;-36
2022/08/17 03:57:21;;;;;;;9.63;4.55;;;;;;;28.51;51.83;96586.28;5116964;28;20050;-34
2022/08/17 03:59:46;;;;;;;5.18;3.35;;;;;;;28.52;51.73;96587.03;5116725;28;20019;-35
2022/08/17 04:02:18;;;;;;;6.80;4.40;;;;;;;28.55;51.60;96591.53;5116753;28;20031;-35
2022/08/17 04:04:43;;;;;;;7.47;3.47;;;;;;;28.50;51.54;96592.38;5116589;28;20020;-35
2022/08/17 04:07:09;;;;;;;4.85;3.50;;;;;;;28.52;51.37;96607.31;5115815;28;20057;-35
2022/08/17 04:09:35;;;;;;;7.30;3.40;;;;;;;28.52;51.66;96607.31;5116462;28;20051;-36
2022/08/17 04:12:01;;;;;;;4.25;2.90;;;;;;;28.52;51.63;96601.72;5116662;28;20453;-34
2022/08/17 04:14:26;;;;;;;6.20;3.40;;;;;;;28.51;51.39;96613.41;5116470;28;20090;-34
2022/08/17 04:16:52;;;;;;;6.68;3.67;;;;;;;28.53;51.74;96610.84;5116444;28;20031;-34
2022/08/17 04:19:18;;;;;;;5.13;3.35;;;;;;;28.51;51.67;96619.00;5116168;28;20418;-35
2022/08/17 04:21:43;;;;;;;7.90;3.58;;;;;;;28.50;51.70;96618.25;5116705;28;20023;-34
2022/08/17 04:24:09;;;;;;;6.18;3.42;;;;;;;28.50;51.81;96634.25;5116276;28;20165;-34
2022/08/17 04:26:34;;;;;;;5.05;3.42;;;;;;;28.54;51.56;96626.28;5116012;28;20069;-34
2022/08/17 04:29:00;;;;;;;5.40;3.13;;;;;;;28.53;51.61;96625.53;5116070;28;20498;-35
2022/08/17 04:31:26;;;;;;;6.15;3.35;;;;;;;28.51;51.44;96625.34;5116169;28;20019;-34
2022/08/17 04:33:51;;;;;;;4.82;3.03;;;;;;;28.55;51.60;96622.22;5115906;28;20023;-34
2022/08/17 04:36:17;;;;;;;4.78;3.22;;;;;;;28.52;51.52;96629.63;5115987;28;20114;-35
2022/08/17 04:38:45;;;;;;;5.38;3.30;;;;;;;28.51;51.63;96630.16;5115729;28;20020;-34
2022/08/17 04:43:57;;;;;;;7.28;3.22;;;;;;;28.55;51.57;96639.69;5115815;28;20088;-35
2022/08/17 04:46:40;;;;;;;7.28;3.45;;;;;;;28.54;51.37;96635.41;5115839;28;20028;-34
2022/08/17 04:49:09;;;;;;;6.85;3.25;;;;;;;28.54;51.46;96634.66;5115834;28;20034;-35
2022/08/17 04:51:40;;;;;;;3.83;3.25;;;;;;;28.52;51.21;96637.25;5115748;28;20024;-35
2022/08/17 04:54:23;;;;;;;7.80;4.10;;;;;;;28.51;51.52;96633.69;5115660;28;20076;-35
2022/08/17 04:56:49;;;;;;;6.35;3.10;;;;;;;28.51;51.44;96633.69;5115922;28;20111;-35
2022/08/17 04:59:19;;;;;;;6.70;3.53;;;;;;;28.52;51.43;96638.00;5115919;28;20055;-35
2022/08/17 05:01:48;;;;;;;6.75;3.45;;;;;;;28.53;51.45;96642.28;5114157;27;20401;-35
2022/08/17 05:04:22;;;;;;;5.88;3.03;;;;;;;28.53;51.25;96653.44;5115361;28;20470;-35
2022/08/17 05:06:48;;;;;;;6.40;3.33;;;;;;;28.53;51.22;96658.28;5115417;28;20027;-34
2022/08/17 05:09:16;;;;;;;7.32;3.60;;;;;;;28.52;51.15;96667.94;5115024;28;20044;-34
2022/08/17 05:11:42;;;;;;;5.13;3.40;;;;;;;28.52;51.31;96663.09;5115668;28;20119;-34
2022/08/17 05:14:07;;;;;;;6.18;3.30;;;;;;;28.50;51.31;96670.50;5115104;28;20063;-35
2022/08/17 05:16:33;;;;;;;5.07;3.45;;;;;;;28.53;51.20;96677.81;5113822;28;20032;-36
2022/08/17 05:18:58;;;;;;;8.10;3.53;;;;;;;28.52;51.18;96671.47;5114261;28;20020;-35
2022/08/17 05:21:25;;;;;;;6.20;3.70;;;;;;;28.49;51.45;96666.97;5115099;28;20015;-35
2022/08/17 05:23:51;;;;;;;9.52;3.60;;;;;;;28.50;51.55;96660.09;5114971;28;20533;-34
2022/08/17 05:26:19;;;;;;;6.10;3.45;;;;;;;28.51;51.31;96658.81;5115250;28;20115;-35
2022/08/17 05:28:44;;;;;;;5.13;3.40;;;;;;;28.51;51.46;96652.47;5113696;28;20065;-35
2022/08/17 05:31:11;;;;;;;5.35;3.35;;;;;;;28.50;51.44;96653.78;5114900;28;20469;-35
2022/08/17 05:33:39;;;;;;;6.53;3.65;;;;;;;28.49;51.34;96641.09;5115025;28;20396;-34
2022/08/17 05:36:07;;;;;;;6.43;3.15;;;;;;;28.51;51.17;96644.09;5114813;28;20028;-34
2022/08/17 05:38:32;;;;;;;6.95;3.65;;;;;;;28.46;51.30;96651.31;5114787;28;20024;-36
2022/08/17 05:41:02;;;;;;;6.65;3.58;;;;;;;28.46;51.41;96640.16;5114959;27;20030;-35
2022/08/17 05:43:30;;;;;;;6.45;3.58;;;;;;;28.47;51.53;96638.84;5114784;28;20031;-35
2022/08/17 05:46:21;;;;;;;8.05;4.43;;;;;;;28.46;51.56;96631.78;5114844;28;20065;-34
2022/08/17 05:48:50;;;;;;;4.70;3.28;;;;;;;28.45;51.58;96632.31;5114148;28;20512;-34
2022/08/17 05:51:31;;;;;;;5.00;3.55;;;;;;;28.47;51.28;96633.28;5114712;28;20027;-34
2022/08/17 05:54:04;;;;;;;8.35;3.53;;;;;;;28.46;51.71;96631.03;5114717;28;20028;-34
2022/08/17 05:56:58;;;;;;;8.07;3.70;;;;;;;28.46;51.34;96631.03;5114720;28;20491;-35
2022/08/17 05:59:43;;;;;;;8.07;4.30;;;;;;;28.43;51.47;96638.47;5114635;28;20047;-34
2022/08/17 06:02:27;;;;;;;6.32;4.10;;;;;;;28.46;51.44;96631.78;5114582;28;20026;-35
2022/08/17 06:05:15;;;;;;;4.78;3.25;;;;;;;28.49;51.44;96633.50;5114626;28;20063;-34
2022/08/17 06:08:26;;;;;;;6.70;3.80;;;;;;;28.48;51.49;96639.59;5114049;28;20154;-34
2022/08/17 06:11:03;;;;;;;5.30;3.17;;;;;;;28.51;51.37;96644.09;5102848;28;20039;-34
2022/08/17 06:13:30;;;;;;;10.45;3.40;;;;;;;28.51;51.40;96644.84;5114411;28;20073;-35
2022/08/17 06:16:01;;;;;;;9.80;4.40;;;;;;;28.46;51.36;96644.97;5114081;28;20051;-34
2022/08/17 06:18:34;;;;;;;4.90;3.20;;;;;;;28.50;51.29;96660.09;5114358;28;20522;-36
2022/08/17 06:21:04;;;;;;;7.70;3.50;;;;;;;28.51;51.45;96656.03;5114245;28;20026;-36
2022/08/17 06:23:39;;;;;;;7.82;3.60;;;;;;;28.48;51.36;96650.75;5114202;28;20016;-35
2022/08/17 06:26:13;;;;;;;8.48;3.47;;;;;;;28.51;51.40;96658.81;5113297;28;20027;-35
2022/08/17 06:29:15;;;;;;;7.00;3.70;;;;;;;28.47;51.56;96658.38;5113700;28;20069;-35
2022/08/17 06:31:41;;;;;;;7.70;3.97;;;;;;;28.47;51.47;96657.63;5113900;28;20038;-35
2022/08/17 06:34:09;;;;;;;7.10;3.58;;;;;;;28.46;51.36;96653.34;5113941;28;20027;-35
2022/08/17 06:36:50;;;;;;;6.50;3.80;;;;;;;28.47;51.41;96654.84;5113712;28;20028;-35
2022/08/17 06:39:18;;;;;;;6.68;3.95;;;;;;;28.47;51.56;96640.91;5113944;28;20103;-34
2022/08/17 06:41:53;;;;;;;6.47;3.72;;;;;;;28.42;51.68;96636.22;5113851;28;20027;-34
2022/08/17 06:44:35;;;;;;;9.32;4.00;;;;;;;28.34;52.42;96630.53;5113714;28;20055;-34
2022/08/17 06:47:12;;;;;;;6.00;3.77;;;;;;;28.43;51.73;96630.09;5113660;28;20047;-34
2022/08/17 06:49:50;;;;;;;7.05;4.07;;;;;;;28.32;52.25;96638.69;5114086;28;20309;-35
2022/08/17 06:52:25;;;;;;;8.02;3.70;;;;;;;28.39;52.00;96628.91;5113724;28;20024;-34
2022/08/17 06:55:08;;;;;;;10.80;4.40;;;;;;;28.41;52.00;96629.13;5113906;28;20481;-34
2022/08/17 06:57:42;;;;;;;5.18;3.78;;;;;;;28.36;52.98;96621.63;5113897;28;20073;-34
2022/08/17 07:00:15;;;;;;;7.13;3.78;;;;;;;28.26;52.77;96615.00;5113773;28;20019;-35
2022/08/17 07:03:22;;;;;;;9.73;3.90;;;;;;;28.33;52.76;96615.06;5113545;28;20031;-36
2022/08/17 07:05:52;;;;;;;8.07;3.85;;;;;;;28.36;52.22;96621.63;5091168;28;20024;-35
2022/08/17 07:08:23;;;;;;;6.47;3.75;;;;;;;28.37;52.21;96623.13;5090933;28;20047;-35
2022/08/17 07:11:00;;;;;;;6.85;3.72;;;;;;;28.42;52.46;96619.47;5091141;28;20032;-34
2022/08/17 07:13:55;;;;;;;5.90;3.95;;;;;;;28.32;53.06;96629.56;5091114;28;20493;-36
2022/08/17 07:16:24;;;;;;;6.65;4.05;;;;;;;28.23;53.02;96619.63;5065588;28;20545;-34
2022/08/17 07:18:52;;;;;;;8.35;4.40;;;;;;;28.23;55.92;96612.00;5090983;28;20034;-34
2022/08/17 07:21:50;;;;;;;6.25;4.10;;;;;;;28.22;53.30;96596.56;5073965;28;20456;-36
2022/08/17 07:24:26;;;;;;;7.10;3.85;;;;;;;28.34;52.33;96590.72;5085489;28;20036;-34
2022/08/17 07:27:06;;;;;;;4.35;3.33;;;;;;;28.41;52.41;96598.44;5090806;28;20027;-34
2022/08/17 07:29:37;;;;;;;4.90;3.83;;;;;;;28.36;52.61;96600.06;5090950;28;20040;-36
2022/08/17 07:32:02;;;;;;;9.63;4.07;;;;;;;28.28;53.18;96598.50;5090855;28;20055;-34
2022/08/17 07:34:28;;;;;;;8.27;4.07;;;;;;;28.33;53.44;96597.59;5091030;28;20066;-34
2022/08/17 07:37:04;;;;;;;8.40;3.50;;;;;;;28.23;53.96;96602.88;5105350;28;20040;-34
2022/08/17 07:39:30;;;;;;;8.05;3.70;;;;;;;28.10;53.79;96614.78;5113431;28;20027;-34
2022/08/17 07:42:03;;;;;;;6.45;3.78;;;;;;;28.30;53.62;96624.56;5115575;28;20492;-35
2022/08/17 07:44:28;;;;;;;6.75;4.07;;;;;;;28.29;53.32;96611.16;5124046;27;20047;-35
2022/08/17 07:49:45;;;;;;;13.40;3.83;;;;;;;27.82;55.53;96592.31;5123142;27;20034;-34
2022/08/17 07:52:27;;;;;;;9.32;3.85;;;;;;;27.63;57.67;96589.69;5135826;27;20400;-35
2022/08/17 07:54:53;;;;;;;11.57;4.40;;;;;;;28.01;55.44;96592.19;5135425;27;20031;-35
2022/08/17 07:57:18;;;;;;;13.68;4.28;;;;;;;27.89;55.55;96597.25;5134386;27;20392;-34
2022/08/17 07:59:59;;;;;;;10.43;4.10;;;;;;;28.03;54.83;96590.38;5135604;27;20030;-35
2022/08/17 08:02:39;;;;;;;9.25;4.03;;;;;;;28.12;55.48;96583.59;5120699;27;20037;-37
2022/08/17 08:05:27;;;;;;;13.93;4.40;;;;;;;27.97;55.93;96586.19;5113596;28;20023;-35
2022/08/17 08:07:56;;;;;;;8.13;3.85;;;;;;;28.14;55.24;96590.13;5114349;28;20043;-35
2022/08/17 08:10:27;;;;;;;10.07;4.50;;;;;;;28.01;56.09;96604.09;5114420;28;20039;-36
2022/08/17 08:13:20;;;;;;;10.68;4.57;;;;;;;27.92;56.02;96598.97;5114730;28;20020;-35
2022/08/17 08:15:52;;;;;;;13.20;4.22;;;;;;;27.92;56.44;96601.75;5114455;28;20027;-34
2022/08/17 08:18:23;;;;;;;11.05;4.32;;;;;;;27.97;55.60;96606.44;5114756;28;20027;-35
2022/08/17 08:20:54;;;;;;;12.02;4.22;;;;;;;27.81;56.31;96605.53;5114716;28;20381;-34
2022/08/17 08:23:28;;;;;;;14.77;4.20;;;;;;;27.94;55.92;96627.06;5114387;28;20020;-35
2022/08/17 08:26:10;;;;;;;10.45;4.00;;;;;;;28.03;55.05;96629.41;5112536;28;20438;-35
2022/08/17 08:28:49;;;;;;;9.25;3.90;;;;;;;27.87;55.29;96633.28;5113930;28;20030;-34
2022/08/17 08:31:56;;;;;;;11.68;3.90;;;;;;;27.94;55.16;96634.69;5114223;28;20036;-34
2022/08/17 08:34:28;;;;;;;12.27;4.13;;;;;;;27.87;54.95;96630.50;5114476;28;20026;-34
2022/08/17 08:37:20;;;;;;;8.80;3.75;;;;;;;27.92;54.95;96632.44;5114225;28;20023;-35
2022/08/17 08:40:19;;;;;;;10.40;3.65;;;;;;;28.10;54.27;96634.31;5092293;28;20046;-34
2022/08/17 08:43:22;;;;;;;8.35;3.60;;;;;;;28.20;53.87;96648.56;5108769;28;20128;-36
2022/08/17 08:46:15;;;;;;;12.70;4.15;;;;;;;28.31;53.13;96653.19;5108842;28;20107;-35
2022/08/17 08:49:01;;;;;;;11.82;4.10;;;;;;;27.98;54.02;96646.97;5102828;28;20040;-35
2022/08/17 08:51:45;;;;;;;12.57;4.53;;;;;;;28.05;53.95;96649.13;5093166;28;20032;-35
2022/08/17 08:54:35;;;;;;;9.57;4.10;;;;;;;27.80;53.61;96639.50;5093410;28;20081;-34
2022/08/17 08:57:29;;;;;;;10.02;3.95;;;;;;;28.09;53.17;96643.97;5112319;28;20023;-35
2022/08/17 08:59:58;;;;;;;9.95;3.50;;;;;;;28.29;52.33;96653.72;5115526;28;20388;-36
2022/08/17 09:02:51;;;;;;;8.38;3.83;;;;;;;28.23;51.67;96653.84;5115694;28;20469;-35
2022/08/17 09:05:35;;;;;;;10.40;3.78;;;;;;;28.03;53.02;96642.59;5115354;28;20054;-31
2022/08/17 09:08:45;;;;;;;10.63;3.92;;;;;;;27.85;53.55;96638.63;5114754;28;20044;-34
2022/08/17 09:11:43;;;;;;;14.45;4.57;;;;;;;28.16;52.28;96660.06;5114535;28;20092;-34
2022/08/17 09:14:24;;;;;;;18.25;5.43;;;;;;;28.37;51.62;96656.59;5115501;28;20061;-34
2022/08/17 09:17:12;;;;;;;13.07;4.38;;;;;;;28.43;51.42;96652.41;5115448;28;20039;-34
2022/08/17 09:19:44;;;;;;;9.98;3.88;;;;;;;28.40;51.77;96661.84;5115232;28;20039;-34
2022/08/17 09:22:51;;;;;;;14.48;5.25;;;;;;;28.28;51.98;96659.84;5115250;28;20032;-34
2022/08/17 09:25:30;;;;;;;16.08;3.72;;;;;;;28.38;51.71;96660.88;5092710;28;20032;-34
2022/08/17 09:28:04;;;;;;;12.05;4.20;;;;;;;28.31;51.80;96665.09;5092515;28;20046;-34
2022/08/17 09:30:39;;;;;;;11.77;4.63;;;;;;;28.18;52.16;96665.88;5092625;28;20051;-34
2022/08/17 09:33:08;;;;;;;10.70;4.05;;;;;;;28.28;51.98;96671.75;5055396;28;20040;-35
2022/08/17 09:36:08;;;;;;;12.15;4.22;;;;;;;28.42;51.20;96675.25;5072407;28;20028;-34
2022/08/17 09:38:43;;;;;;;11.43;4.03;;;;;;;28.33;51.98;96667.31;5072219;28;20021;-34
2022/08/17 09:41:28;;;;;;;9.68;3.92;;;;;;;28.20;52.19;96665.31;5072057;28;20047;-34
2022/08/17 09:44:04;;;;;;;13.27;4.10;;;;;;;28.26;51.93;96673.56;5072216;28;20028;-34
2022/08/17 09:46:44;;;;;;;12.40;3.63;;;;;;;28.42;51.47;96686.41;5072028;28;20036;-34
2022/08/17 09:49:29;;;;;;;11.93;3.88;;;;;;;28.41;51.16;96670.97;5071830;28;20032;-35
2022/08/17 09:52:01;;;;;;;11.52;3.88;;;;;;;28.33;51.29;96668.06;5071689;28;20051;-34
2022/08/17 09:54:38;;;;;;;9.43;3.47;;;;;;;28.39;50.89;96665.19;5071911;28;20134;-34
2022/08/17 09:57:22;;;;;;;12.93;4.45;;;;;;;28.44;50.69;96659.47;5071804;28;20119;-34
2022/08/17 09:59:53;;;;;;;14.05;4.47;;;;;;;28.49;50.26;96663.44;5088107;28;20054;-34
2022/08/17 10:02:39;;;;;;;12.35;3.65;;;;;;;28.50;50.48;96670.50;5094320;28;20062;-35
2022/08/17 10:05:14;;;;;;;13.02;4.05;;;;;;;28.52;50.29;96667.94;5094018;28;20031;-35
2022/08/17 10:08:14;;;;;;;6.93;3.58;;;;;;;28.52;50.39;96667.94;5093606;28;20365;-35
2022/08/17 10:10:57;;;;;;;10.32;4.00;;;;;;;28.51;50.44;96672.00;5093733;28;20056;-35
2022/08/17 10:14:04;;;;;;;9.88;4.13;;;;;;;28.56;50.22;96671.16;5093937;28;20024;-35
2022/08/17 10:16:55;;;;;;;9.65;4.47;;;;;;;28.45;50.31;96674.16;5091867;28;20098;-34
2022/08/17 10:19:27;;;;;;;10.95;3.88;;;;;;;28.52;49.97;96695.84;5091819;28;20571;-34
2022/08/17 10:27:39;;;;;;;9.52;3.35;;;;;;;28.50;49.48;96671.25;5091921;28;20122;-34
2022/08/17 10:30:09;;;;;;;10.07;3.92;;;;;;;28.48;49.32;96659.13;5091556;28;20047;-34
2022/08/17 10:32:59;;;;;;;10.60;4.15;;;;;;;28.48;49.03;96664.72;5091630;28;20028;-34
2022/08/17 10:35:44;;;;;;;8.77;3.50;;;;;;;28.56;48.82;96674.66;5091320;28;20050;-34
2022/08/17 10:38:29;;;;;;;9.20;3.75;;;;;;;28.56;48.26;96673.94;5091334;28;20472;-34
2022/08/17 10:41:19;;;;;;;8.18;3.92;;;;;;;28.56;48.10;96679.50;5091415;28;20058;-35
2022/08/17 10:44:01;;;;;;;10.32;3.78;;;;;;;28.54;47.90;96671.69;5091351;28;20397;-35
2022/08/17 10:46:50;;;;;;;8.30;3.30;;;;;;;28.52;48.09;96668.69;5091734;28;20036;-34
2022/08/17 10:49:16;;;;;;;8.35;3.80;;;;;;;28.51;47.48;96661.59;5093399;28;20466;-35
2022/08/17 10:52:02;;;;;;;9.82;3.38;;;;;;;28.51;47.34;96666.44;5093357;28;20053;-35
2022/08/17 10:54:46;;;;;;;10.13;3.92;;;;;;;28.64;46.46;96660.81;5096034;28;20076;-35
2022/08/17 10:57:36;;;;;;;12.20;3.75;;;;;;;28.66;46.12;96672.19;5112791;28;20023;-34
2022/08/17 11:00:14;;;;;;;10.15;3.67;;;;;;;28.64;45.82;96674.75;5113643;28;20028;-34
2022/08/17 11:02:56;;;;;;;8.90;3.80;;;;;;;28.67;45.56;96673.69;5113578;28;20068;-34
2022/08/17 11:05:54;;;;;;;9.98;3.70;;;;;;;28.71;45.78;96662.91;5113737;28;20089;-34
2022/08/17 11:08:58;;;;;;;10.15;3.75;;;;;;;28.72;45.59;96658.84;5113370;28;20111;-35
2022/08/17 11:11:35;;;;;;;;;;;;;;;28.68;45.62;96661.22;5112986;28;20409;-34
2022/08/17 11:14:07;;;;;;;10.88;3.60;;;;;;;28.68;45.53;96658.44;5113537;28;19908;-34
2022/08/17 11:17:07;;;;;;;12.40;3.75;;;;;;;28.76;45.26;96653.66;5115731;28;20073;-34
2022/08/17 11:20:04;;;;;;;12.70;3.50;;;;;;;28.76;44.77;96652.91;5117538;28;20024;-34
2022/08/17 11:22:56;;;;;;;7.93;3.38;;;;;;;28.68;45.13;96647.28;5117240;28;20016;-34
2022/08/17 11:25:53;;;;;;;9.68;3.28;;;;;;;28.62;45.28;96649.44;5117821;28;20106;-34
2022/08/17 11:28:24;;;;;;;12.07;4.57;;;;;;;28.65;45.13;96653.19;5117205;28;20028;-34
2022/08/17 11:30:56;;;;;;;8.45;3.72;;;;;;;28.67;45.04;96639.44;5117354;28;20020;-34
2022/08/17 11:33:28;;;;;;;10.00;3.40;;;;;;;28.80;44.59;96637.38;5117476;28;20031;-34
2022/08/17 11:36:25;;;;;;;8.88;2.80;;;;;;;28.76;44.70;96655.72;5117595;27;20030;-35
2022/08/17 11:39:34;;;;;;;10.02;3.67;;;;;;;28.78;44.69;96656.72;5107663;28;20035;-34
2022/08/17 11:42:37;;;;;;;6.28;3.03;;;;;;;28.69;44.56;96664.75;5105665;28;20437;-35
2022/08/17 11:45:21;;;;;;;;;;;;;;;28.72;44.46;96652.50;5117367;28;20072;-35
2022/08/17 11:53:46;;;;;;;13.77;2.90;;;;;;;28.69;44.13;96662.69;5111505;28;20035;-34
2022/08/17 11:56:39;;;;;;;11.60;3.42;;;;;;;28.78;43.80;96658.72;5116915;28;20397;-35
2022/08/17 11:59:38;;;;;;;11.70;3.90;;;;;;;28.76;43.72;96658.50;5116743;27;20550;-34
2022/08/17 12:02:29;;;;;;;9.52;3.60;;;;;;;28.75;43.60;96652.16;5116581;28;20020;-34
2022/08/17 12:05:11;;;;;;;11.23;3.65;;;;;;;28.72;43.17;96661.63;5116594;28;20115;-35
2022/08/17 12:07:45;;;;;;;8.73;2.95;;;;;;;28.76;43.20;96670.41;5116392;28;20023;-34
2022/08/17 12:10:16;;;;;;;14.85;3.42;;;;;;;28.75;42.62;96654.97;5116532;28;20501;-35
2022/08/17 12:12:43;;;;;;;9.65;3.25;;;;;;;28.70;42.77;96650.25;5116790;28;20031;-35
2022/08/17 12:15:28;;;;;;;12.80;3.60;;;;;;;28.76;42.63;96630.59;5116328;28;20506;-34
2022/08/17 12:17:55;;;;;;;10.00;3.65;;;;;;;28.83;42.12;96635.50;5116527;28;20030;-34
2022/08/17 12:20:41;;;;;;;8.02;3.30;;;;;;;28.75;42.71;96649.38;5116329;28;20023;-34
2022/08/17 12:23:16;;;;;;;8.13;3.22;;;;;;;28.73;42.88;96648.41;5116212;28;20023;-34
2022/08/17 12:26:03;;;;;;;10.00;3.33;;;;;;;28.83;42.21;96653.00;5116407;28;20026;-31
2022/08/17 12:28:31;;;;;;;13.02;3.53;;;;;;;28.67;43.34;96648.56;5115630;28;20090;-34
2022/08/17 12:31:04;;;;;;;9.25;3.83;;;;;;;28.71;43.48;96656.59;5116395;28;20038;-36
2022/08/17 12:33:30;;;;;;;13.45;3.47;;;;;;;28.75;43.43;96640.25;5101668;28;20031;-35
2022/08/17 12:36:04;;;;;;;9.65;3.60;;;;;;;28.64;43.87;96644.06;5085813;28;20032;-34